createdAt,value
2019-04-29T00:04:48.599Z,18.60
2019-04-29T00:07:16.068Z,19.00
2019-04-29T00:09:42.461Z,18.60
2019-04-29T00:12:09.559Z,18.60
2019-04-29T00:14:37.617Z,18.90
2019-04-29T00:17:08.735Z,19.30
2019-04-29T00:19:37.004Z,18.40
2019-04-29T00:24:29.940Z,19.00
2019-04-29T00:26:56.700Z,18.40
2019-04-29T00:31:49.872Z,18.50
2019-04-29T00:34:15.964Z,18.50
2019-04-29T00:36:55.716Z,19.60
2019-04-29T00:39:29.545Z,18.60
2019-04-29T00:47:09.395Z,19.20
2019-04-29T00:49:35.470Z,19.00
2019-04-29T00:54:33.211Z,18.40
2019-04-29T00:56:59.269Z,19.40
2019-04-29T01:04:18.652Z,18.90
2019-04-29T01:06:44.735Z,18.80
2019-04-29T01:09:14.997Z,19.00
2019-04-29T01:14:07.788Z,19.00
2019-04-29T01:16:33.884Z,18.40
2019-04-29T01:19:00.072Z,18.50
2019-04-29T01:21:26.481Z,18.30
2019-04-29T01:26:27.021Z,18.20
2019-04-29T01:31:23.320Z,18.50
2019-04-29T01:33:51.618Z,18.40
2019-04-29T01:38:48.780Z,18.50
2019-04-29T01:41:17.889Z,19.30
2019-04-29T01:44:01.092Z,18.30
2019-04-29T01:46:29.188Z,19.30
2019-04-29T01:48:56.632Z,17.70
2019-04-29T01:51:22.923Z,18.10
2019-04-29T01:53:49.103Z,19.20
2019-04-29T01:56:15.152Z,19.30
2019-04-29T02:01:07.959Z,18.80
2019-04-29T02:06:00.903Z,18.20
2019-04-29T02:08:26.951Z,18.50
2019-04-29T02:10:53.002Z,18.10
2019-04-29T02:13:19.408Z,18.40
2019-04-29T02:15:45.736Z,18.90
2019-04-29T02:18:11.825Z,18.60
2019-04-29T02:20:37.885Z,18.30
2019-04-29T02:23:05.836Z,18.90
2019-04-29T02:25:51.740Z,18.40
2019-04-29T02:28:17.795Z,18.60
2019-04-29T02:35:40.165Z,19.10
2019-04-29T02:38:08.409Z,19.10
2019-04-29T02:43:13.670Z,18.50
2019-04-29T02:45:39.991Z,18.20
2019-04-29T02:48:06.428Z,19.20
2019-04-29T02:50:33.513Z,19.10
2019-04-29T02:55:28.017Z,18.00
2019-04-29T03:03:16.225Z,18.00
2019-04-29T03:05:50.057Z,18.70
2019-04-29T03:10:43.286Z,18.20
2019-04-29T03:13:09.432Z,18.40
2019-04-29T03:15:39.325Z,19.00
2019-04-29T03:20:50.874Z,18.20
2019-04-29T03:25:45.595Z,18.00
2019-04-29T03:28:12.276Z,17.90
2019-04-29T03:30:38.649Z,18.30
2019-04-29T03:33:04.977Z,18.50
2019-04-29T03:35:31.313Z,19.00
2019-04-29T03:37:57.471Z,18.90
2019-04-29T03:42:49.997Z,18.50
2019-04-29T03:47:42.933Z,18.30
2019-04-29T03:50:10.412Z,18.10
2019-04-29T03:52:36.503Z,18.20
2019-04-29T03:55:05.056Z,18.30
2019-04-29T03:57:33.002Z,19.10
2019-04-29T03:59:59.244Z,19.10
2019-04-29T04:02:27.224Z,18.70
2019-04-29T04:10:10.101Z,19.20
2019-04-29T04:15:08.212Z,18.30
2019-04-29T04:17:51.466Z,18.20
2019-04-29T04:20:18.701Z,17.90
2019-04-29T04:30:09.364Z,18.60
2019-04-29T04:32:36.334Z,18.80
2019-04-29T04:37:31.778Z,18.90
2019-04-29T04:39:58.144Z,19.10
2019-04-29T04:42:24.229Z,18.40
2019-04-29T04:44:50.340Z,19.10
2019-04-29T04:52:11.532Z,18.30
2019-04-29T04:54:37.865Z,18.80
2019-04-29T04:57:04.192Z,18.30
2019-04-29T05:09:16.400Z,18.20
2019-04-29T05:11:42.788Z,19.20
2019-04-29T05:14:08.839Z,18.90
2019-04-29T05:16:34.883Z,18.30
2019-04-29T05:23:54.124Z,18.60
2019-04-29T05:28:46.591Z,18.20
2019-04-29T05:33:39.121Z,18.20
2019-04-29T05:36:10.188Z,18.20
2019-04-29T05:41:11.139Z,18.80
2019-04-29T05:43:45.448Z,18.40
2019-04-29T05:46:28.800Z,19.00
2019-04-29T05:51:38.540Z,18.40
2019-04-29T05:54:06.815Z,18.50
2019-04-29T05:56:33.145Z,19.30
2019-04-29T06:01:27.843Z,18.30
2019-04-29T06:03:54.188Z,19.10
2019-04-29T06:06:20.275Z,19.00
2019-04-29T06:08:46.328Z,18.50
2019-04-29T06:13:38.885Z,18.30
2019-04-29T06:16:05.221Z,18.20
2019-04-29T06:18:31.328Z,18.80
2019-04-29T06:21:08.208Z,19.00
2019-04-29T06:28:21.590Z,18.80
2019-04-29T06:30:50.132Z,18.30
2019-04-29T06:33:14.224Z,18.60
2019-04-29T06:35:43.328Z,19.30
2019-04-29T06:38:08.535Z,19.40
2019-04-29T06:40:35.381Z,18.30
2019-04-29T06:43:03.439Z,18.40
2019-04-29T06:47:56.227Z,18.80
2019-04-29T06:50:22.284Z,18.90
2019-04-29T06:55:16.533Z,19.30
2019-04-29T07:00:11.649Z,18.90
2019-04-29T07:02:38.083Z,19.30
2019-04-29T07:05:06.240Z,19.60
2019-04-29T07:09:58.755Z,18.80
2019-04-29T07:17:18.010Z,19.60
2019-04-29T07:22:10.767Z,19.90
2019-04-29T07:24:36.856Z,20.10
2019-04-29T07:27:04.454Z,20.00
2019-04-29T07:29:32.776Z,20.60
2019-04-29T07:31:58.756Z,21.30
2019-04-29T07:34:28.829Z,20.40
2019-04-29T07:36:53.277Z,21.20
2019-04-29T07:39:21.497Z,21.20
2019-04-29T07:41:49.486Z,22.30
2019-04-29T07:44:18.406Z,21.20
2019-04-29T07:46:56.061Z,21.80
2019-04-29T07:49:17.329Z,20.60
2019-04-29T07:51:41.600Z,20.30
2019-04-29T07:54:10.997Z,20.20
2019-04-29T07:56:37.787Z,21.10
2019-04-29T07:59:04.652Z,20.50
2019-04-29T08:03:58.259Z,19.90
2019-04-29T08:08:55.536Z,20.30
2019-04-29T08:11:21.223Z,20.00
2019-04-29T08:13:49.947Z,19.60
2019-04-29T08:18:44.635Z,20.10
2019-04-29T08:23:42.086Z,19.40
2019-04-29T08:26:08.225Z,19.70
2019-04-29T08:33:27.456Z,19.70
2019-04-29T08:35:53.839Z,19.20
2019-04-29T08:38:19.896Z,19.80
2019-04-29T08:40:50.165Z,19.90
2019-04-29T08:43:32.316Z,19.70
2019-04-29T08:46:16.735Z,19.80
2019-04-29T08:48:45.751Z,19.20
2019-04-29T08:56:05.666Z,19.90
2019-04-29T09:00:58.056Z,19.80
2019-04-29T09:03:24.457Z,19.90
2019-04-29T09:06:03.957Z,20.40
2019-04-29T09:08:19.283Z,20.10
2019-04-29T09:10:45.770Z,20.80
2019-04-29T09:13:11.824Z,20.20
2019-04-29T09:15:38.228Z,19.70
2019-04-29T09:18:04.416Z,20.40
2019-04-29T09:22:58.785Z,19.20
2019-04-29T09:25:28.058Z,20.00
2019-04-29T09:27:56.494Z,19.30
2019-04-29T09:30:23.756Z,19.90
2019-04-29T09:32:49.853Z,19.20
2019-04-29T09:35:16.752Z,20.00
2019-04-29T09:37:43.084Z,19.80
2019-04-29T09:40:12.264Z,19.50
2019-04-29T09:45:37.755Z,19.50
2019-04-29T09:48:03.835Z,20.00
2019-04-29T09:50:34.226Z,19.40
2019-04-29T09:52:57.975Z,19.90
2019-04-29T09:55:25.284Z,19.60
2019-04-29T09:57:51.360Z,20.20
2019-04-29T10:00:26.887Z,19.60
2019-04-29T10:05:29.547Z,20.30
2019-04-29T10:07:56.231Z,19.90
2019-04-29T10:10:22.531Z,19.80
2019-04-29T10:15:18.373Z,19.60
2019-04-29T10:17:50.799Z,19.70
2019-04-29T10:20:34.303Z,19.20
2019-04-29T10:23:00.396Z,19.30
2019-04-29T10:25:26.703Z,19.70
2019-04-29T10:27:52.903Z,19.40
2019-04-29T10:30:20.887Z,20.20
2019-04-29T10:35:14.492Z,20.00
2019-04-29T10:40:17.268Z,19.60
2019-04-29T10:42:45.658Z,20.20
2019-04-29T10:45:15.518Z,19.40
2019-04-29T10:47:43.505Z,19.20
2019-04-29T10:50:17.052Z,19.90
2019-04-29T10:52:43.653Z,19.40
2019-04-29T10:55:11.949Z,20.40
2019-04-29T10:57:39.131Z,20.20
2019-04-29T11:00:10.856Z,20.00
2019-04-29T11:02:38.847Z,20.20
2019-04-29T11:05:26.347Z,19.20
2019-04-29T11:07:58.107Z,19.20
2019-04-29T11:10:25.759Z,19.20
2019-04-29T11:12:55.568Z,19.40
2019-04-29T11:15:28.327Z,20.30
2019-04-29T11:17:59.371Z,19.20
2019-04-29T11:20:22.353Z,19.80
2019-04-29T11:25:42.557Z,19.40
2019-04-29T11:28:11.972Z,19.60
2019-04-29T11:30:39.460Z,19.80
2019-04-29T11:33:14.794Z,19.90
2019-04-29T11:35:45.619Z,20.00
2019-04-29T11:40:43.491Z,19.40
2019-04-29T11:43:10.976Z,19.70
2019-04-29T11:45:38.620Z,19.70
2019-04-29T11:48:06.158Z,19.50
2019-04-29T11:50:54.748Z,19.20
2019-04-29T11:53:20.723Z,19.20
2019-04-29T11:55:47.181Z,19.40
2019-04-29T11:58:21.268Z,19.10
2019-04-29T12:01:08.470Z,20.10
2019-04-29T12:03:37.541Z,19.80
2019-04-29T12:06:10.367Z,19.40
2019-04-29T12:08:36.697Z,19.70
2019-04-29T12:11:06.992Z,19.30
2019-04-29T12:16:12.375Z,19.50
2019-04-29T12:18:49.253Z,19.40
2019-04-29T12:21:19.747Z,20.10
2019-04-29T12:23:47.701Z,19.40
2019-04-29T12:28:42.908Z,20.00
2019-04-29T12:31:11.471Z,19.50
2019-04-29T12:33:45.930Z,20.20
2019-04-29T12:41:21.156Z,19.20
2019-04-29T12:46:19.640Z,19.60
2019-04-29T12:53:44.744Z,19.60
2019-04-29T12:58:38.656Z,19.60
2019-04-29T13:01:15.432Z,19.90
2019-04-29T13:03:43.470Z,19.90
2019-04-29T13:06:23.706Z,19.20
2019-04-29T13:08:50.704Z,19.30
2019-04-29T13:11:19.173Z,20.30
2019-04-29T13:13:45.715Z,19.10
2019-04-29T13:16:19.994Z,19.80
2019-04-29T13:18:48.867Z,20.20
2019-04-29T13:21:15.257Z,20.20
2019-04-29T13:23:55.440Z,19.50
2019-04-29T13:31:04.778Z,19.30
2019-04-29T13:35:57.384Z,19.40
2019-04-29T13:38:23.864Z,19.90
2019-04-29T13:40:49.920Z,19.60
2019-04-29T13:43:16.428Z,20.20
2019-04-29T13:45:50.939Z,19.80
2019-04-29T13:48:30.547Z,20.30
2019-04-29T13:51:13.718Z,19.20
2019-04-29T13:53:39.929Z,19.40
2019-04-29T13:56:11.795Z,20.30
2019-04-29T13:58:34.066Z,20.30
2019-04-29T14:01:22.218Z,20.20
2019-04-29T14:03:53.108Z,19.20
2019-04-29T14:08:46.232Z,20.10
2019-04-29T14:11:12.623Z,19.70
2019-04-29T14:13:42.749Z,20.30
2019-04-29T14:16:07.677Z,19.20
2019-04-29T14:21:01.748Z,20.00
2019-04-29T14:23:28.255Z,19.90
2019-04-29T14:25:54.684Z,19.70
2019-04-29T14:30:49.229Z,19.30
2019-04-29T14:33:19.331Z,19.70
2019-04-29T14:35:50.331Z,20.20
2019-04-29T14:38:16.376Z,20.20
2019-04-29T14:40:44.026Z,19.50
2019-04-29T14:43:32.134Z,19.70
2019-04-29T14:45:59.169Z,19.10
2019-04-29T14:48:41.127Z,19.10
2019-04-29T14:50:56.138Z,19.20
2019-04-29T14:53:24.134Z,19.00
2019-04-29T14:55:50.914Z,20.60
2019-04-29T14:58:17.081Z,19.80
2019-04-29T15:00:51.046Z,19.10
2019-04-29T15:03:19.700Z,19.40
2019-04-29T15:05:46.173Z,19.40
2019-04-29T15:08:12.333Z,19.70
2019-04-29T15:10:40.435Z,19.10
2019-04-29T15:13:21.375Z,20.10
2019-04-29T15:16:04.287Z,19.30
2019-04-29T15:18:47.302Z,19.90
2019-04-29T15:23:36.384Z,19.40
2019-04-29T15:28:30.249Z,20.10
2019-04-29T15:30:56.352Z,19.30
2019-04-29T15:33:22.430Z,19.30
2019-04-29T15:35:48.479Z,20.20
2019-04-29T15:38:14.564Z,19.70
2019-04-29T15:43:09.234Z,20.20
2019-04-29T15:45:36.263Z,19.00
2019-04-29T15:48:02.311Z,19.80
2019-04-29T15:52:58.815Z,19.90
2019-04-29T15:55:24.933Z,20.00
2019-04-29T15:57:52.229Z,19.60
2019-04-29T16:00:22.909Z,20.00
2019-04-29T16:07:51.629Z,20.00
2019-04-29T16:10:38.537Z,19.10
2019-04-29T16:13:09.283Z,20.10
2019-04-29T16:15:35.342Z,19.60
2019-04-29T16:18:05.331Z,19.70
2019-04-29T16:20:29.734Z,19.00
2019-04-29T16:23:00.655Z,19.00
2019-04-29T16:25:23.766Z,20.00
2019-04-29T16:27:53.385Z,19.20
2019-04-29T16:32:45.784Z,19.70
2019-04-29T16:35:12.108Z,19.20
2019-04-29T16:37:38.205Z,19.70
2019-04-29T16:40:06.764Z,19.40
2019-04-29T16:42:52.116Z,19.50
2019-04-29T16:45:20.471Z,19.00
2019-04-29T16:47:48.653Z,19.20
2019-04-29T16:50:15.900Z,19.70
2019-04-29T16:55:12.756Z,19.70
2019-04-29T16:57:38.939Z,18.80
2019-04-29T17:00:13.949Z,19.40
2019-04-29T17:02:36.279Z,19.00
2019-04-29T17:05:06.481Z,19.70
2019-04-29T17:10:21.147Z,19.20
2019-04-29T17:15:24.655Z,19.40
2019-04-29T17:17:43.772Z,18.90
2019-04-29T17:20:13.227Z,19.30
2019-04-29T17:22:43.251Z,19.10
2019-04-29T17:25:10.005Z,19.50
2019-04-29T17:37:58.844Z,19.40
2019-04-29T17:43:00.830Z,18.80
2019-04-29T17:48:18.211Z,19.10
2019-04-29T17:53:17.580Z,19.10
2019-04-29T17:55:46.262Z,19.80
2019-04-29T17:58:20.249Z,18.90
2019-04-29T18:00:59.528Z,19.50
2019-04-29T18:05:58.356Z,18.90
2019-04-29T18:08:35.605Z,19.20
2019-04-29T18:11:08.140Z,19.70
2019-04-29T18:13:33.007Z,19.80
2019-04-29T18:18:46.154Z,19.60
2019-04-29T18:23:59.237Z,18.80
2019-04-29T18:28:58.302Z,19.20
2019-04-29T18:33:48.108Z,19.30
2019-04-29T18:36:23.456Z,19.50
2019-04-29T18:41:16.420Z,19.30
2019-04-29T18:43:38.945Z,18.90
2019-04-29T18:48:35.262Z,19.40
2019-04-29T18:51:01.304Z,19.60
2019-04-29T18:53:27.656Z,18.80
2019-04-29T18:55:55.092Z,18.80
2019-04-29T18:58:21.876Z,18.80
2019-04-29T19:00:52.411Z,18.90
2019-04-29T19:03:18.092Z,19.40
2019-04-29T19:05:46.079Z,18.90
2019-04-29T19:08:14.882Z,18.90
2019-04-29T19:13:12.929Z,19.00
2019-04-29T19:15:35.595Z,19.00
2019-04-29T19:18:02.075Z,18.70
2019-04-29T19:20:29.030Z,18.70
2019-04-29T19:23:05.443Z,18.60
2019-04-29T19:25:25.423Z,19.70
2019-04-29T19:27:51.367Z,19.60
2019-04-29T19:30:21.042Z,18.80
2019-04-29T19:32:48.084Z,19.70
2019-04-29T19:35:16.804Z,19.70
2019-04-29T19:37:45.340Z,19.10
2019-04-29T19:40:15.035Z,18.90
2019-04-29T19:42:41.859Z,18.90
2019-04-29T19:47:37.025Z,19.60
2019-04-29T19:50:06.141Z,19.40
2019-04-29T19:52:32.188Z,18.90
2019-04-29T19:55:01.666Z,19.10
2019-04-29T19:57:26.844Z,18.80
2019-04-29T19:59:54.415Z,19.70
2019-04-29T20:02:21.566Z,18.80
2019-04-29T20:04:59.666Z,18.70
2019-04-29T20:07:28.378Z,18.90
2019-04-29T20:10:04.051Z,19.20
2019-04-29T20:12:25.711Z,18.60
2019-04-29T20:17:39.760Z,19.60
2019-04-29T20:20:11.862Z,19.30
2019-04-29T20:22:43.494Z,19.70
2019-04-29T20:25:07.348Z,18.60
2019-04-29T20:27:35.693Z,19.10
2019-04-29T20:30:15.772Z,19.70
2019-04-29T20:32:36.281Z,18.70
2019-04-29T20:35:08.883Z,19.10
2019-04-29T20:37:36.402Z,18.90
2019-04-29T20:40:06.094Z,18.90
2019-04-29T20:42:35.663Z,19.20
2019-04-29T20:45:05.544Z,19.20
2019-04-29T20:47:38.023Z,19.70
2019-04-29T20:52:32.592Z,18.90
2019-04-29T20:55:02.474Z,18.70
2019-04-29T20:57:27.931Z,19.60
2019-04-29T20:59:55.022Z,18.70
2019-04-29T21:02:31.265Z,19.00
2019-04-29T21:07:23.500Z,18.50
2019-04-29T21:12:29.829Z,19.30
2019-04-29T21:17:30.751Z,18.80
2019-04-29T21:19:53.384Z,18.80
2019-04-29T21:22:23.490Z,18.90
2019-04-29T21:24:49.409Z,18.50
2019-04-29T21:27:22.162Z,18.70
2019-04-29T21:29:45.635Z,18.60
2019-04-29T21:32:11.995Z,18.90
2019-04-29T21:34:51.651Z,18.80
2019-04-29T21:39:50.852Z,19.00
2019-04-29T21:44:48.636Z,18.80
2019-04-29T21:49:45.524Z,18.40
2019-04-29T21:52:10.583Z,18.50
2019-04-29T21:54:36.636Z,18.50
2019-04-29T22:01:59.132Z,18.60
2019-04-29T22:11:47.363Z,19.20
2019-04-29T22:14:14.127Z,19.10
2019-04-29T22:16:41.545Z,19.50
2019-04-29T22:19:07.903Z,19.10
2019-04-29T22:21:35.885Z,19.10
2019-04-29T22:24:02.408Z,18.50
2019-04-29T22:26:28.600Z,18.70
2019-04-29T22:29:01.652Z,19.10
2019-04-29T22:31:26.938Z,18.90
2019-04-29T22:36:18.189Z,19.50
2019-04-29T22:38:50.559Z,19.30
2019-04-29T22:41:20.233Z,19.40
2019-04-29T22:43:49.454Z,19.40
2019-04-29T22:46:17.453Z,19.40
2019-04-29T22:48:45.375Z,18.50
2019-04-29T22:51:15.125Z,18.70
2019-04-29T22:53:39.994Z,18.50
2019-04-29T22:58:39.533Z,19.20
2019-04-29T23:01:06.854Z,18.20
2019-04-29T23:03:37.544Z,18.30
2019-04-29T23:06:06.894Z,19.30
2019-04-29T23:08:34.605Z,18.40
2019-04-29T23:10:59.788Z,19.10
2019-04-29T23:13:31.110Z,19.20
2019-04-29T23:16:01.102Z,18.40
2019-04-29T23:23:38.199Z,18.50
2019-04-29T23:26:05.485Z,18.70
2019-04-29T23:28:32.531Z,18.60
2019-04-29T23:30:58.695Z,18.80
2019-04-29T23:33:26.361Z,18.50
2019-04-29T23:35:52.735Z,18.50
2019-04-29T23:38:18.887Z,19.20
2019-04-29T23:40:44.933Z,18.90
2019-04-29T23:45:37.957Z,18.70
2019-04-29T23:50:32.655Z,18.20
2019-04-29T23:52:58.756Z,18.60
2019-04-29T23:55:29.060Z,18.40
2019-04-29T23:58:02.877Z,18.60
